»·PEaware :: DAL213 KSAN-KSFO

DAL213 :: KSAN-KSFO

FLIGHT INFORMATION

Flight Status: Arrived
Operator:
Delta Air Lines
More flights by this operator :: More flights under this callsign
Pilot: Nicolas L. (9332)
Aircraft: BOEING 737-800
(B738)
More flights by this aircraft type
Origin: KSAN San Diego Intl-Lindbergh
United States
Destination: KSFO San Francisco Intl
United States
More flights between these airports :: More routes between these airports
Route: PADRZ2 IKAYE RIZIN SPLNT STOKD SERFR SERFR3
File this flight plan on PilotEdge
Remarks: Live Streaming on Twitch "DAL213" and YT
Altitude:
(Current/Filed)
34,000ft
Speed:
(Current/Filed)
400kts
Departed: 27-Sep-18 08:31 PM
Arrived: 27-Sep-18 09:36 PM
Distance/Time
Traveled:
388nm/1:04
Distance/Time
To Go:
Arrived

Flight Plot

Page will automatically refresh every two minutes.

Flight plan parsing failed; only flown route is shown


Map Options




Map Legend


Flown Route
Filed Route
Departure Airport
Arrival Airport
Navaid (VOR, NDB)
Fix

Horizontal Profiles

Position Reports

Time Latitude Longitude Heading Altitude Ground
Speed
27-Sep-18 19:53 32.733296 -117.195996 198 24ft 0kts
27-Sep-18 19:54 32.733296 -117.195996 198 24ft 0kts
27-Sep-18 19:55 32.733296 -117.195996 198 24ft 0kts
27-Sep-18 19:56 32.733296 -117.195996 198 24ft 0kts
27-Sep-18 19:57 32.733296 -117.195996 198 24ft 0kts
27-Sep-18 19:58 32.733296 -117.195996 198 24ft 0kts
27-Sep-18 19:59 32.733296 -117.195996 198 24ft 0kts
27-Sep-18 20:00 32.733296 -117.195996 198 24ft 0kts
27-Sep-18 20:01 32.733296 -117.195996 198 24ft 0kts
27-Sep-18 20:02 32.733296 -117.195996 198 24ft 0kts
27-Sep-18 20:03 32.733296 -117.195996 198 24ft 0kts
27-Sep-18 20:04 32.733296 -117.195996 198 24ft 0kts
27-Sep-18 20:05 32.733296 -117.195996 198 24ft 0kts
27-Sep-18 20:06 32.733296 -117.195996 198 24ft 0kts
27-Sep-18 20:07 32.733296 -117.195996 198 24ft 0kts
27-Sep-18 20:08 32.733296 -117.195996 198 24ft 0kts
27-Sep-18 20:09 32.733296 -117.195996 198 24ft 0kts
27-Sep-18 20:10 32.733296 -117.195996 198 24ft 0kts
27-Sep-18 20:11 32.733296 -117.195996 198 24ft 0kts
27-Sep-18 20:12 32.733296 -117.195996 198 24ft 0kts
27-Sep-18 20:13 32.733296 -117.195996 198 24ft 0kts
27-Sep-18 20:14 32.733296 -117.195996 198 24ft 0kts
27-Sep-18 20:15 32.733296 -117.195996 198 24ft 0kts
27-Sep-18 20:16 32.733296 -117.195996 198 24ft 0kts
27-Sep-18 20:17 32.733296 -117.195996 198 24ft 0kts
27-Sep-18 20:18 32.733296 -117.195996 198 24ft 0kts
27-Sep-18 20:19 32.733296 -117.195996 198 24ft 0kts
27-Sep-18 20:20 32.733296 -117.195996 198 24ft 0kts
27-Sep-18 20:21 32.733296 -117.195996 198 24ft 0kts
27-Sep-18 20:22 32.733296 -117.195996 198 24ft 0kts
27-Sep-18 20:23 32.733296 -117.195996 198 24ft 0kts
27-Sep-18 20:24 32.733296 -117.195996 198 24ft 0kts
27-Sep-18 20:25 32.733296 -117.195996 198 24ft 0kts
27-Sep-18 20:26 32.733660 -117.195930 173 24ft 2kts
27-Sep-18 20:27 32.733891 -117.195662 100 24ft 10kts
27-Sep-18 20:28 32.732833 -117.190943 105 24ft 17kts
27-Sep-18 20:29 32.731512 -117.185530 105 24ft 16kts
27-Sep-18 20:30 32.730353 -117.180720 105 24ft 18kts
27-Sep-18 20:31 32.729484 -117.177072 104 24ft 0kts
27-Sep-18 20:32 32.729539 -117.176363 71 24ft 19kts
27-Sep-18 20:33 32.735814 -117.198904 286 106ft 158kts
27-Sep-18 20:34 32.758456 -117.248240 304 2219ft 186kts
27-Sep-18 20:35 32.792951 -117.307302 304 3916ft 250kts
27-Sep-18 20:36 32.838324 -117.378437 306 6384ft 282kts
27-Sep-18 20:37 32.887219 -117.454289 306 9068ft 297kts
27-Sep-18 20:38 32.940407 -117.537015 306 10923ft 339kts
27-Sep-18 20:39 33.000463 -117.626370 313 13461ft 352kts
27-Sep-18 20:40 33.071235 -117.710868 313 15886ft 366kts
27-Sep-18 20:41 33.144487 -117.798152 313 18227ft 379kts
27-Sep-18 20:42 33.220106 -117.888477 313 20543ft 390kts
27-Sep-18 20:43 33.297768 -117.981482 313 22727ft 400kts
27-Sep-18 20:44 33.376644 -118.077317 312 24714ft 408kts
27-Sep-18 20:45 33.455638 -118.176326 312 26499ft 417kts
27-Sep-18 20:46 33.536544 -118.277952 312 28113ft 424kts
27-Sep-18 20:47 33.618387 -118.381065 312 29518ft 430kts
27-Sep-18 20:48 33.701688 -118.486330 312 30750ft 436kts
27-Sep-18 20:49 33.785670 -118.592777 312 31759ft 442kts
27-Sep-18 20:50 33.870203 -118.700246 312 32716ft 443kts
27-Sep-18 20:51 33.954663 -118.807957 312 33765ft 439kts
27-Sep-18 20:52 34.038475 -118.915186 311 33939ft 440kts
27-Sep-18 20:53 34.122090 -119.022482 311 33939ft 435kts
27-Sep-18 20:54 34.204789 -119.128930 311 33935ft 435kts
27-Sep-18 20:55 34.287475 -119.235691 311 33933ft 435kts
27-Sep-18 20:56 34.370378 -119.343062 311 33940ft 436kts
27-Sep-18 20:57 34.452986 -119.450372 311 33940ft 436kts
27-Sep-18 20:58 34.535574 -119.558017 311 33947ft 436kts
27-Sep-18 20:59 34.618318 -119.666177 311 33933ft 436kts
27-Sep-18 21:00 34.700202 -119.773572 311 33929ft 432kts
27-Sep-18 21:01 34.781686 -119.880772 310 33958ft 430kts
27-Sep-18 21:02 34.862781 -119.987761 310 33961ft 431kts
27-Sep-18 21:03 34.944007 -120.095284 310 33964ft 432kts
27-Sep-18 21:04 35.025662 -120.203752 310 33978ft 433kts
27-Sep-18 21:05 35.106949 -120.312042 310 33979ft 433kts
27-Sep-18 21:06 35.188233 -120.420671 310 33978ft 433kts
27-Sep-18 21:07 35.269714 -120.529899 310 33973ft 434kts
27-Sep-18 21:08 35.350880 -120.639081 309 33973ft 434kts
27-Sep-18 21:09 35.432351 -120.749015 310 33969ft 435kts
27-Sep-18 21:10 35.518083 -120.853180 321 33976ft 438kts
27-Sep-18 21:11 35.616332 -120.942057 320 33963ft 439kts
27-Sep-18 21:12 35.714304 -121.032622 319 33962ft 440kts
27-Sep-18 21:13 35.811727 -121.123631 319 33960ft 441kts
27-Sep-18 21:14 35.909708 -121.215410 319 33956ft 442kts
27-Sep-18 21:15 36.007379 -121.307209 319 32068ft 443kts
27-Sep-18 21:16 36.108387 -121.396497 325 29865ft 452kts
27-Sep-18 21:17 36.215434 -121.479390 325 27622ft 449kts
27-Sep-18 21:18 36.319485 -121.560883 325 25430ft 437kts
27-Sep-18 21:19 36.420638 -121.640340 325 23302ft 426kts
27-Sep-18 21:20 36.519665 -121.718379 325 21215ft 415kts
27-Sep-18 21:21 36.615688 -121.794336 325 19188ft 404kts
27-Sep-18 21:22 36.709297 -121.868598 325 17208ft 392kts
27-Sep-18 21:23 36.792687 -121.907504 345 15631ft 382kts
27-Sep-18 21:24 36.910695 -121.941344 346 13463ft 363kts
27-Sep-18 21:25 36.990485 -121.967711 342 11987ft 346kts
27-Sep-18 21:26 37.080762 -122.003320 342 10557ft 331kts
27-Sep-18 21:27 37.162347 -122.035216 342 10041ft 294kts
27-Sep-18 21:28 37.240259 -122.065745 342 10008ft 293kts
27-Sep-18 21:29 37.316597 -122.095759 342 8740ft 286kts
27-Sep-18 21:30 37.391501 -122.125220 342 7280ft 277kts
27-Sep-18 21:31 37.461446 -122.150850 342 5270ft 259kts
27-Sep-18 21:32 37.530977 -122.170600 346 2818ft 257kts
27-Sep-18 21:33 37.578051 -122.219538 279 1791ft 221kts
27-Sep-18 21:34 37.565067 -122.279429 253 1210ft 144kts
27-Sep-18 21:35 37.562297 -122.328377 279 1047ft 134kts
27-Sep-18 21:36 37.577462 -122.370856 309 768ft 132kts
27-Sep-18 21:37 37.609177 -122.379108 24 45ft 136kts
27-Sep-18 21:38 37.621504 -122.372387 298 22ft 0kts
27-Sep-18 21:39 37.621477 -122.376737 229 22ft 21kts
27-Sep-18 21:40 37.618482 -122.380435 230 22ft 9kts
27-Sep-18 21:41 37.618288 -122.380781 235 22ft 0kts
27-Sep-18 21:42 37.618288 -122.380781 235 22ft 0kts
27-Sep-18 21:43 37.618288 -122.380781 235 22ft 0kts
27-Sep-18 21:44 37.618288 -122.380781 235 22ft 0kts

Navigation Log

Ident Type
Flight plan parsing failed, navigation log unavailable